Kuala Lumpur, Malaysia

2:52 AM MYT on July 14, 2014 (GMT +0800)
Sungai Buloh (ISELANGO6) Elev 207 ft | 3.21 °N, 101.56 °E | Change Station

Current weather conditions updated 2 minutes ago

Mostly Cloudy
Mostly Cloudy
84.7 °F
Feels Like 91 °F
N
3.8
Wind Variable Wind from East
Gusts 4.5 mph

Today is forecast to be Much Cooler than yesterday.

Today
High -- | Low -- °F
--% Chance of Precip.
Yesterday
High -- | Low -- °F
Precip. -- in
7:11 AM 7:28 PM
Full, 97% visible
Pressure 29.80 in
Visibility 6.2 miles
Clouds Few 3000 ft
Scattered Clouds 14000 ft
Mostly Cloudy 28000 ft
Heat Index 91 °F
Dew Point 75 °F
Humidity 68%
Rainfall 0.00 in
Snow Depth Not available.
UV 0 out of 12
Pollen Not available.
Air Quality Not available.
Flu Activity Not available.
METAR WMKK 131830Z 14003KT 9999 FEW030 SCT140 BKN280 27/23 Q1009 NOSIG

More Conditions Fewer Conditions

Pressure 29.80 in
Visibility 6.2 miles
Clouds Few 3000 ft
Scattered Clouds 14000 ft
Mostly Cloudy 28000 ft
Heat Index 91 °F
Dew Point 75 °F
Humidity 68%
Rainfall 0.00 in
Snow Depth Not available.
UV 0 out of 12
Pollen Not available.
Air Quality Not available.
Flu Activity Not available.
METAR WMKK 131830Z 14003KT 9999 FEW030 SCT140 BKN280 27/23 Q1009 NOSIG

More Conditions Fewer Conditions

10-Day Weather Forecast

Almanac

Astronomy

Jul. 14, 2014 Rise Set
Actual Time 7:11 AM MYT 7:28 PM MYT
Civil Twilight 6:48 AM MYT 7:50 PM MYT
Nautical Twilight 6:22 AM MYT 8:16 PM MYT
Astronomical Twilight 5:56 AM MYT 8:42 PM MYT
Moon 9:17 PM MYT (7/14) 8:42 AM MYT (7/14)
Length of Visible Light 13h 01m
Length of Day
12h 17m
Tomorrow will be 0m 6s shorter.
Full, 97% of the Moon is Illuminated
Jul 13
Full
Jul 18
Last Quarter
Jul 26
New
Aug 3
First Quarter
Aug 10
Full

Yesterday's Extremes

Country Highs Country Lows

Community

WunderPhotos

Upload Photos

1,733,324 photos uploaded!

Nearby

Snow Depth

Not available.

Earthquake Activity

City Distance Mag. Time & Date
No recent earthquake activity has been reported nearby.
Minimum magnitude displayed is 2.5.

Coastal Water Temperatures

Place Temperature
No Stations Reporting

Nearby Weather Stations

Station Location Temp. Heat Index Dew Point Humidity Wind Precip. Elev Updated Type
Sungai Buloh, Sungai Buloh 84.7 °F 91 °F 75 °F 68% East  at  3.8 mph 0.00 in / hr 207 ft 2:50 AM MYT Normal

Show More Stations Show Fewer Stations